Time;durP1;ratioP1;P1;durP2;ratioP2;P2;SDS_P1;SDS_P2;PMS_P1;PMS_P2;Temp;Humidity;BMP_temperature;BMP_pressure;BME280_temperature;BME280_humidity;BME280_pressure;Samples;Min_cycle;Max_cycle;Signal;HPM_P1;HPM_P2
2022/01/30 00:00:23;;;;;;;8.10;2.92;;;18.50;99.90;;;;;;4162558;28;20269;-74
2022/01/30 00:02:25;;;;;;;8.60;3.25;;;18.50;99.90;;;;;;4162563;28;20213;-75
2022/01/30 00:04:29;;;;;;;7.65;3.42;;;18.50;99.90;;;;;;4162048;28;20216;-74
2022/01/30 00:06:31;;;;;;;8.55;3.20;;;18.50;99.90;;;;;;4164165;28;20228;-75
2022/01/30 00:08:34;;;;;;;7.45;2.92;;;18.50;99.90;;;;;;4163431;28;20216;-75
2022/01/30 00:10:38;;;;;;;8.65;2.85;;;18.50;99.90;;;;;;4162537;28;20278;-75
2022/01/30 00:12:46;;;;;;;9.40;3.22;;;18.50;99.90;;;;;;4163265;28;20232;-75
2022/01/30 00:14:53;;;;;;;6.85;3.13;;;18.50;99.90;;;;;;4163614;28;20275;-75
2022/01/30 00:17:01;;;;;;;8.70;3.17;;;18.50;99.90;;;;;;4163927;28;20293;-74
2022/01/30 00:19:11;;;;;;;9.70;3.60;;;18.50;99.90;;;;;;4163700;28;20279;-74
2022/01/30 00:21:28;;;;;;;7.60;2.88;;;18.40;99.90;;;;;;4162454;28;20273;-74
2022/01/30 00:23:32;;;;;;;11.27;3.53;;;18.40;99.90;;;;;;4162798;28;20895;-75
2022/01/30 00:25:45;;;;;;;11.98;4.13;;;18.50;99.90;;;;;;4163603;28;20224;-74
2022/01/30 00:27:55;;;;;;;10.27;3.50;;;18.40;99.90;;;;;;4161158;28;20279;-74
2022/01/30 00:29:57;;;;;;;9.20;3.20;;;18.40;99.90;;;;;;4163261;28;20290;-74
2022/01/30 00:31:59;;;;;;;9.82;3.90;;;18.40;99.90;;;;;;4161345;28;20240;-74
2022/01/30 00:34:02;;;;;;;9.25;3.13;;;18.40;99.90;;;;;;4145055;28;20222;-74
2022/01/30 00:36:05;;;;;;;9.27;3.53;;;18.40;99.90;;;;;;4163468;28;20224;-75
2022/01/30 00:38:15;;;;;;;11.00;3.65;;;18.40;99.90;;;;;;4162458;28;20752;-74
2022/01/30 00:40:17;;;;;;;10.93;3.47;;;18.40;99.90;;;;;;4153637;28;20224;-74
2022/01/30 00:42:21;;;;;;;8.23;3.78;;;18.40;99.90;;;;;;4163731;28;20224;-74
2022/01/30 00:44:23;;;;;;;9.75;3.35;;;18.40;99.90;;;;;;4161616;28;20277;-74
2022/01/30 00:46:25;;;;;;;9.27;3.50;;;18.40;99.90;;;;;;4161354;28;20675;-74
2022/01/30 00:48:28;;;;;;;9.15;3.58;;;18.40;99.90;;;;;;4162303;28;20282;-74
2022/01/30 00:50:31;;;;;;;11.23;3.05;;;18.40;99.90;;;;;;4164683;28;20216;-75
2022/01/30 00:52:33;;;;;;;7.20;3.00;;;18.40;99.90;;;;;;4165329;28;20236;-74
2022/01/30 00:54:37;;;;;;;10.98;3.83;;;18.40;99.90;;;;;;4163665;28;20224;-74
2022/01/30 00:56:39;;;;;;;8.98;3.55;;;18.30;99.90;;;;;;4167175;28;20650;-75
2022/01/30 00:58:41;;;;;;;9.75;3.08;;;18.40;99.90;;;;;;4165004;28;20216;-74
2022/01/30 01:00:44;;;;;;;10.20;3.65;;;18.40;99.90;;;;;;4165011;28;20830;-74
2022/01/30 01:02:46;;;;;;;8.77;3.25;;;18.40;99.90;;;;;;4165039;28;20286;-74
2022/01/30 01:04:49;;;;;;;6.97;3.03;;;18.40;99.90;;;;;;4166853;28;20270;-74
2022/01/30 01:06:51;;;;;;;9.05;3.03;;;18.30;99.90;;;;;;4165517;28;20220;-74
2022/01/30 01:08:58;;;;;;;9.75;3.58;;;18.30;99.90;;;;;;4165042;28;20270;-74
2022/01/30 01:11:15;;;;;;;10.07;3.58;;;18.30;99.90;;;;;;4165116;28;20273;-74
2022/01/30 01:24:50;;;;;;;8.48;3.38;;;18.30;99.90;;;;;;4139045;28;20240;-74
2022/01/30 01:26:54;;;;;;;9.77;3.80;;;18.20;99.90;;;;;;4160914;28;20259;-74
2022/01/30 01:28:56;;;;;;;11.82;4.13;;;18.30;99.90;;;;;;4163028;28;20262;-75
2022/01/30 01:30:59;;;;;;;10.02;3.50;;;18.30;99.90;;;;;;4164706;28;20217;-74
2022/01/30 01:33:03;;;;;;;10.55;3.70;;;18.20;99.90;;;;;;4158613;28;20274;-74
2022/01/30 01:35:06;;;;;;;7.85;3.10;;;18.20;99.90;;;;;;4162705;28;20225;-74
2022/01/30 01:37:11;;;;;;;9.43;3.58;;;18.20;99.90;;;;;;4163951;28;20290;-74
2022/01/30 01:39:13;;;;;;;8.68;3.40;;;18.20;99.90;;;;;;4165487;28;20267;-75
2022/01/30 01:41:19;;;;;;;7.72;3.33;;;18.20;99.90;;;;;;4164976;28;20267;-74
2022/01/30 01:43:25;;;;;;;9.60;3.85;;;18.20;99.90;;;;;;4164153;28;20728;-74
2022/01/30 01:45:34;;;;;;;11.75;4.30;;;18.20;99.90;;;;;;4161783;28;20224;-74
2022/01/30 01:47:36;;;;;;;10.60;3.78;;;18.20;99.90;;;;;;4164205;28;20220;-74
2022/01/30 01:49:39;;;;;;;10.30;4.13;;;18.20;99.90;;;;;;4164511;28;20216;-74
2022/01/30 01:51:47;;;;;;;11.38;4.03;;;18.20;99.90;;;;;;4164245;28;20216;-74
2022/01/30 01:53:55;;;;;;;10.52;3.55;;;18.20;99.90;;;;;;4163666;28;20278;-75
2022/01/30 01:55:59;;;;;;;8.27;3.45;;;18.20;99.90;;;;;;4164138;28;20216;-75
2022/01/30 01:58:01;;;;;;;10.50;4.03;;;18.20;99.90;;;;;;4163976;28;20275;-75
2022/01/30 02:00:07;;;;;;;8.88;3.53;;;18.20;99.90;;;;;;4164239;28;20209;-75
2022/01/30 02:02:09;;;;;;;7.78;3.42;;;18.10;99.90;;;;;;4163337;28;20220;-75
2022/01/30 02:04:12;;;;;;;8.88;3.60;;;18.10;99.90;;;;;;4163811;28;20258;-74
2022/01/30 02:06:19;;;;;;;10.70;3.70;;;18.10;99.90;;;;;;4164152;28;20268;-74
2022/01/30 02:08:32;;;;;;;10.70;3.80;;;18.10;99.90;;;;;;4164274;28;20208;-74
2022/01/30 02:10:47;;;;;;;10.07;3.78;;;18.10;99.90;;;;;;4163988;28;20274;-74
2022/01/30 02:12:52;;;;;;;8.80;3.58;;;18.10;99.90;;;;;;4163647;28;20236;-74
2022/01/30 02:15:10;;;;;;;11.63;3.90;;;18.10;99.90;;;;;;4163797;28;20209;-75
2022/01/30 02:24:24;;;;;;;11.48;3.88;;;18.10;99.90;;;;;;4163774;28;20188;-74
2022/01/30 02:26:27;;;;;;;10.40;3.80;;;18.10;99.90;;;;;;4160079;28;20267;-74
2022/01/30 02:28:32;;;;;;;9.68;3.47;;;18.10;99.90;;;;;;4163282;28;20217;-74
2022/01/30 02:30:38;;;;;;;11.90;4.32;;;18.00;99.90;;;;;;4162811;28;20212;-74
2022/01/30 02:32:40;;;;;;;8.13;3.40;;;18.00;99.90;;;;;;4164271;28;20275;-74
2022/01/30 02:34:43;;;;;;;8.20;3.60;;;18.00;99.90;;;;;;4164010;28;20310;-74
2022/01/30 02:36:48;;;;;;;10.45;3.50;;;18.00;99.90;;;;;;4161446;28;20295;-74
2022/01/30 02:38:53;;;;;;;8.43;3.88;;;18.00;99.90;;;;;;4163505;28;20220;-74
2022/01/30 02:40:58;;;;;;;8.77;3.47;;;18.00;99.90;;;;;;4163167;28;20599;-74
2022/01/30 02:43:00;;;;;;;8.65;3.22;;;18.00;99.90;;;;;;4164449;28;20275;-74
2022/01/30 02:45:06;;;;;;;8.60;3.55;;;18.00;99.90;;;;;;4162357;28;20665;-74
2022/01/30 02:47:21;;;;;;;8.98;3.30;;;18.00;99.90;;;;;;4163549;28;20224;-74
2022/01/30 02:49:41;;;;;;;10.80;3.70;;;18.00;99.90;;;;;;4163495;28;20944;-75
2022/01/30 02:51:48;;;;;;;9.48;3.55;;;18.00;99.90;;;;;;4164392;28;20216;-74
2022/01/30 02:54:02;;;;;;;11.68;3.90;;;18.00;99.90;;;;;;4143029;28;20233;-74
2022/01/30 02:56:06;;;;;;;8.63;3.58;;;18.00;99.90;;;;;;4163329;28;20220;-74
2022/01/30 02:58:08;;;;;;;10.55;3.25;;;18.00;99.90;;;;;;4163416;28;21072;-74
2022/01/30 03:00:11;;;;;;;9.55;3.95;;;18.00;99.90;;;;;;4165023;28;20267;-74
2022/01/30 03:02:14;;;;;;;9.63;3.35;;;18.00;99.90;;;;;;4161347;28;20271;-74
2022/01/30 03:04:16;;;;;;;9.00;3.72;;;17.90;99.90;;;;;;4162736;28;20628;-74
2022/01/30 03:06:19;;;;;;;10.32;3.50;;;18.00;99.90;;;;;;4162908;28;20271;-74
2022/01/30 03:08:21;;;;;;;9.80;3.65;;;17.90;99.90;;;;;;4162948;28;20267;-75
2022/01/30 03:10:23;;;;;;;9.52;3.63;;;17.90;99.90;;;;;;4162881;28;20275;-74
2022/01/30 03:12:27;;;;;;;9.15;3.47;;;17.90;99.90;;;;;;4163872;28;20267;-75
2022/01/30 03:14:30;;;;;;;9.20;3.83;;;17.90;99.90;;;;;;4163556;28;20240;-74
2022/01/30 03:16:32;;;;;;;10.60;4.03;;;17.90;99.90;;;;;;4162736;28;20208;-74
2022/01/30 03:18:35;;;;;;;7.65;3.10;;;17.90;99.90;;;;;;4163172;28;20267;-74
2022/01/30 03:20:42;;;;;;;9.23;3.50;;;17.90;99.90;;;;;;4157938;28;20221;-75
2022/01/30 03:22:44;;;;;;;8.73;3.67;;;17.90;99.90;;;;;;4160816;28;20223;-74
2022/01/30 03:24:46;;;;;;;9.05;3.97;;;17.90;99.90;;;;;;4160560;28;20267;-74
2022/01/30 03:26:49;;;;;;;6.55;3.13;;;17.90;99.90;;;;;;4162767;28;20216;-74
2022/01/30 03:28:56;;;;;;;8.27;3.50;;;17.90;99.90;;;;;;4163348;28;20313;-74
2022/01/30 03:31:02;;;;;;;8.80;3.13;;;17.90;99.90;;;;;;4162322;28;20275;-74
2022/01/30 03:33:05;;;;;;;11.10;3.42;;;17.90;99.90;;;;;;4162839;28;20224;-74
2022/01/30 03:35:08;;;;;;;9.00;3.55;;;17.90;99.90;;;;;;4163537;28;20724;-75
2022/01/30 03:37:10;;;;;;;10.45;3.38;;;17.90;99.90;;;;;;4163288;28;20247;-74
2022/01/30 03:39:12;;;;;;;6.53;3.28;;;17.90;99.90;;;;;;4163127;28;20627;-75
2022/01/30 03:41:15;;;;;;;10.32;3.65;;;17.80;99.90;;;;;;4162540;28;20221;-74
2022/01/30 03:43:17;;;;;;;12.95;3.90;;;17.80;99.90;;;;;;4163836;28;20267;-75
2022/01/30 03:45:21;;;;;;;10.25;3.78;;;17.80;99.90;;;;;;4162274;28;20212;-74
2022/01/30 03:47:26;;;;;;;8.80;3.47;;;17.80;99.90;;;;;;4162304;28;20221;-74
2022/01/30 03:49:28;;;;;;;10.75;4.18;;;17.80;99.90;;;;;;4162521;28;20213;-74
2022/01/30 03:51:31;;;;;;;9.32;3.30;;;17.80;99.90;;;;;;4162856;28;20561;-74
2022/01/30 03:53:33;;;;;;;9.25;3.30;;;17.80;99.90;;;;;;4162600;28;20212;-74
2022/01/30 03:55:35;;;;;;;12.05;3.58;;;17.80;99.90;;;;;;4162070;28;20220;-75
2022/01/30 03:57:38;;;;;;;9.32;3.38;;;17.80;99.90;;;;;;4162638;28;20224;-75
2022/01/30 03:59:40;;;;;;;8.75;3.20;;;17.80;99.90;;;;;;4162585;28;20295;-74
2022/01/30 04:01:44;;;;;;;12.68;3.85;;;17.80;99.90;;;;;;4159674;28;20233;-75
2022/01/30 04:03:46;;;;;;;8.82;3.65;;;17.80;99.90;;;;;;4162065;28;20216;-75
2022/01/30 04:05:49;;;;;;;8.30;3.22;;;17.70;99.90;;;;;;4162544;28;20213;-74
2022/01/30 04:07:52;;;;;;;8.40;2.95;;;17.80;99.90;;;;;;4163247;28;20228;-75
2022/01/30 04:09:55;;;;;;;9.27;3.38;;;17.80;99.90;;;;;;4163467;28;20212;-75
2022/01/30 04:11:57;;;;;;;9.40;3.50;;;17.80;99.90;;;;;;4162409;28;20216;-75
2022/01/30 04:14:00;;;;;;;12.60;3.88;;;17.70;99.90;;;;;;4161594;28;20236;-75
2022/01/30 04:16:03;;;;;;;8.77;3.38;;;17.70;99.90;;;;;;4161842;28;20658;-74
2022/01/30 04:18:07;;;;;;;11.05;3.92;;;17.70;99.90;;;;;;4161747;28;20275;-74
2022/01/30 04:20:10;;;;;;;13.85;3.95;;;17.70;99.90;;;;;;4160203;28;20212;-74
2022/01/30 04:22:13;;;;;;;9.57;3.30;;;17.70;99.90;;;;;;4164249;28;20834;-74
2022/01/30 04:24:15;;;;;;;8.95;3.65;;;17.70;99.90;;;;;;4160380;28;20218;-74
2022/01/30 04:26:17;;;;;;;8.82;3.33;;;17.70;99.90;;;;;;4161262;28;20220;-74
2022/01/30 04:28:20;;;;;;;10.98;4.00;;;17.70;99.90;;;;;;4161713;28;20266;-74
2022/01/30 04:30:23;;;;;;;9.88;3.65;;;17.70;99.90;;;;;;4161401;28;20743;-74
2022/01/30 04:32:27;;;;;;;11.55;3.53;;;17.70;99.90;;;;;;4162056;28;20715;-74
2022/01/30 04:34:31;;;;;;;9.52;3.30;;;17.70;99.90;;;;;;4161860;28;21020;-75
2022/01/30 04:36:40;;;;;;;12.68;3.72;;;17.70;99.90;;;;;;4161317;28;20713;-75
2022/01/30 04:38:56;;;;;;;9.27;3.17;;;17.70;99.90;;;;;;4162103;28;20216;-75
2022/01/30 04:41:19;;;;;;;8.43;3.70;;;17.70;99.90;;;;;;4161655;28;20217;-75
2022/01/30 04:53:03;;;;;;;10.35;3.58;;;17.60;99.90;;;;;;4161108;28;20205;-75
2022/01/30 04:57:37;;;;;;;9.23;3.20;;;17.60;99.90;;;;;;4162040;28;20197;-75
2022/01/30 04:59:51;;;;;;;9.93;3.45;;;17.60;99.90;;;;;;4161506;28;20212;-74
2022/01/30 05:02:02;;;;;;;7.68;3.42;;;17.60;99.90;;;;;;4161233;28;20224;-74
2022/01/30 05:04:20;;;;;;;9.38;2.95;;;17.60;99.90;;;;;;4161262;28;20212;-75
2022/01/30 05:06:32;;;;;;;8.65;3.17;;;17.60;99.90;;;;;;4162729;28;20220;-75
2022/01/30 05:08:35;;;;;;;8.60;3.30;;;17.60;99.90;;;;;;4161534;28;20267;-75
2022/01/30 05:10:37;;;;;;;13.18;3.78;;;17.60;99.90;;;;;;4156753;28;20220;-74
2022/01/30 05:12:47;;;;;;;9.98;3.45;;;17.60;99.90;;;;;;4162369;28;20220;-74
2022/01/30 05:14:49;;;;;;;10.80;3.72;;;17.60;99.90;;;;;;4162093;28;20243;-75
2022/01/30 05:16:52;;;;;;;7.57;3.00;;;17.60;99.90;;;;;;4161780;28;20627;-74
2022/01/30 05:18:56;;;;;;;9.70;3.80;;;17.60;99.90;;;;;;4162863;28;20619;-75
2022/01/30 05:20:59;;;;;;;10.75;3.53;;;17.50;99.90;;;;;;4161466;28;20692;-74
2022/01/30 05:23:03;;;;;;;7.63;3.50;;;17.50;99.90;;;;;;4162135;28;20732;-75
2022/01/30 05:25:06;;;;;;;6.57;2.97;;;17.50;99.90;;;;;;4161200;28;20267;-75
2022/01/30 05:27:10;;;;;;;13.82;3.95;;;17.50;99.90;;;;;;4160813;28;20279;-75
2022/01/30 05:29:12;;;;;;;10.18;3.47;;;17.50;99.90;;;;;;4160860;28;20215;-75
2022/01/30 05:31:15;;;;;;;8.65;3.47;;;17.50;99.90;;;;;;4161213;28;20212;-75
2022/01/30 05:33:18;;;;;;;9.60;3.40;;;17.50;99.90;;;;;;4161026;28;20225;-74
2022/01/30 05:35:21;;;;;;;8.90;3.45;;;17.50;99.90;;;;;;4161195;28;20240;-74
2022/01/30 05:37:23;;;;;;;9.05;3.58;;;17.50;99.90;;;;;;4163841;28;20283;-75
2022/01/30 05:39:28;;;;;;;10.15;3.72;;;17.50;99.90;;;;;;4164091;28;20270;-74
2022/01/30 05:41:31;;;;;;;8.63;2.95;;;17.50;99.90;;;;;;4163596;28;20216;-74
2022/01/30 05:43:34;;;;;;;6.65;2.95;;;17.50;99.90;;;;;;4152768;28;20244;-74
2022/01/30 05:45:40;;;;;;;9.38;2.92;;;17.40;99.90;;;;;;4147567;28;20267;-74
2022/01/30 05:47:47;;;;;;;7.47;2.63;;;17.50;99.90;;;;;;4148561;28;20716;-74
2022/01/30 05:49:49;;;;;;;9.80;3.22;;;17.50;99.90;;;;;;4149174;28;20221;-75
2022/01/30 05:51:52;;;;;;;8.75;3.03;;;17.40;99.90;;;;;;4153351;28;20224;-74
2022/01/30 05:53:54;;;;;;;11.88;3.50;;;17.50;99.90;;;;;;4158006;28;20229;-75
2022/01/30 05:55:58;;;;;;;7.35;2.88;;;17.50;99.90;;;;;;4155671;28;20302;-74
2022/01/30 05:58:00;;;;;;;7.93;3.25;;;17.50;99.90;;;;;;4157702;28;20628;-75
2022/01/30 06:00:04;;;;;;;8.75;3.53;;;17.50;99.90;;;;;;4157446;28;20216;-75
2022/01/30 06:02:06;;;;;;;10.25;3.85;;;17.40;99.90;;;;;;4157141;28;20228;-75
2022/01/30 06:04:08;;;;;;;10.43;3.08;;;17.40;99.90;;;;;;4158237;28;20213;-75
2022/01/30 06:06:11;;;;;;;8.13;3.13;;;17.40;99.90;;;;;;4156100;28;20208;-74
2022/01/30 06:08:16;;;;;;;8.93;3.25;;;17.40;99.90;;;;;;4148892;28;20221;-75
2022/01/30 06:10:19;;;;;;;7.30;3.20;;;17.40;99.90;;;;;;4158498;28;20283;-75
2022/01/30 06:12:23;;;;;;;9.02;2.83;;;17.40;99.90;;;;;;4162836;28;20216;-74
2022/01/30 06:14:25;;;;;;;8.30;3.00;;;17.40;99.90;;;;;;4153635;28;20427;-75
2022/01/30 06:16:27;;;;;;;10.38;3.20;;;17.40;99.90;;;;;;4155573;28;20236;-75
2022/01/30 06:18:30;;;;;;;11.88;3.67;;;17.40;99.90;;;;;;4148320;28;20221;-75
2022/01/30 06:20:32;;;;;;;8.65;3.22;;;17.40;99.90;;;;;;4150890;28;20633;-75
2022/01/30 06:22:35;;;;;;;9.23;3.20;;;17.40;99.90;;;;;;4148685;28;20221;-75
2022/01/30 06:24:37;;;;;;;8.77;3.33;;;17.40;99.90;;;;;;4150738;28;20225;-75
2022/01/30 06:26:39;;;;;;;8.05;3.38;;;17.40;99.90;;;;;;4155376;28;20244;-75
2022/01/30 06:28:43;;;;;;;6.90;3.20;;;17.40;99.90;;;;;;4160388;28;20552;-75
2022/01/30 06:30:45;;;;;;;7.68;3.33;;;17.40;99.90;;;;;;4152926;28;20252;-75
2022/01/30 06:32:48;;;;;;;7.38;3.00;;;17.40;99.90;;;;;;4151102;28;20276;-75
2022/01/30 06:34:50;;;;;;;9.20;3.20;;;17.40;99.90;;;;;;4152727;28;20639;-75
2022/01/30 06:36:53;;;;;;;8.48;3.13;;;17.40;99.90;;;;;;4159436;28;20240;-75
2022/01/30 06:38:55;;;;;;;9.48;3.22;;;17.40;99.90;;;;;;4164376;28;20283;-75
2022/01/30 06:40:58;;;;;;;8.77;3.40;;;17.40;99.90;;;;;;4163570;28;20221;-75
2022/01/30 06:43:00;;;;;;;6.95;3.22;;;17.30;99.90;;;;;;4163807;28;20723;-75
2022/01/30 06:45:04;;;;;;;11.18;3.28;;;17.40;99.90;;;;;;4163457;28;20239;-75
2022/01/30 06:47:07;;;;;;;9.30;3.53;;;17.40;99.90;;;;;;4162619;28;20271;-76
2022/01/30 06:49:09;;;;;;;7.47;2.97;;;17.40;99.90;;;;;;4164825;28;20230;-75
2022/01/30 06:51:11;;;;;;;9.68;3.25;;;17.30;99.90;;;;;;4163329;28;20719;-75
2022/01/30 06:53:14;;;;;;;10.05;3.83;;;17.30;99.90;;;;;;4163266;28;20254;-75
2022/01/30 06:55:17;;;;;;;8.35;3.20;;;17.40;99.90;;;;;;4163590;28;20621;-75
2022/01/30 06:57:19;;;;;;;10.25;3.42;;;17.40;99.90;;;;;;4159095;28;20706;-75
2022/01/30 06:59:21;;;;;;;8.00;2.92;;;17.30;99.90;;;;;;4161015;28;20224;-75
2022/01/30 07:01:26;;;;;;;13.02;3.20;;;17.30;99.90;;;;;;4163010;28;20224;-75
2022/01/30 07:03:28;;;;;;;8.88;3.13;;;17.30;99.90;;;;;;4163694;28;20724;-75
2022/01/30 07:05:30;;;;;;;9.40;3.08;;;17.30;99.90;;;;;;4163872;28;20561;-75
2022/01/30 07:07:33;;;;;;;9.80;3.35;;;17.30;99.90;;;;;;4163579;28;20274;-75
2022/01/30 07:09:35;;;;;;;8.45;3.53;;;17.30;99.90;;;;;;4161913;28;20278;-75
2022/01/30 07:11:37;;;;;;;9.35;3.50;;;17.30;99.90;;;;;;4163328;28;20217;-75
2022/01/30 07:13:40;;;;;;;7.18;2.80;;;17.30;99.90;;;;;;4163541;28;20282;-75
2022/01/30 07:15:42;;;;;;;8.70;3.20;;;17.30;99.90;;;;;;4164084;28;20240;-75
2022/01/30 07:17:46;;;;;;;10.18;3.80;;;17.30;99.90;;;;;;4163589;28;20274;-75
2022/01/30 07:19:48;;;;;;;11.23;3.58;;;17.30;99.90;;;;;;4163655;28;20224;-75
2022/01/30 07:21:50;;;;;;;7.70;2.85;;;17.30;99.90;;;;;;4163904;28;20228;-75
2022/01/30 07:23:53;;;;;;;8.70;3.35;;;17.30;99.90;;;;;;4163485;28;20270;-75
2022/01/30 07:25:55;;;;;;;8.77;3.50;;;17.30;99.90;;;;;;4163283;28;20212;-75
2022/01/30 07:27:57;;;;;;;8.52;3.53;;;17.20;99.90;;;;;;4162668;28;20213;-75
2022/01/30 07:30:00;;;;;;;8.27;3.05;;;17.20;99.90;;;;;;4163635;28;20271;-75
2022/01/30 07:32:02;;;;;;;6.97;2.92;;;17.30;99.90;;;;;;4163037;28;20217;-75
2022/01/30 07:34:06;;;;;;;7.75;3.20;;;17.30;99.90;;;;;;4163424;28;20228;-75
2022/01/30 07:36:09;;;;;;;7.65;2.78;;;17.20;99.90;;;;;;4163068;28;20224;-75
2022/01/30 07:38:12;;;;;;;8.30;2.97;;;17.20;99.90;;;;;;4163535;28;20216;-75
2022/01/30 07:40:15;;;;;;;10.23;3.28;;;17.20;99.90;;;;;;4163159;28;20228;-75
2022/01/30 07:42:19;;;;;;;13.48;3.53;;;17.20;99.90;;;;;;4161920;28;20274;-75
2022/01/30 07:44:21;;;;;;;8.05;3.05;;;17.20;99.90;;;;;;4162154;28;20212;-76
2022/01/30 07:46:23;;;;;;;8.35;3.28;;;17.20;99.90;;;;;;4162271;28;20263;-75
2022/01/30 07:48:25;;;;;;;8.23;3.00;;;17.20;99.90;;;;;;4162173;28;20677;-75
2022/01/30 07:50:30;;;;;;;8.65;3.20;;;17.20;99.90;;;;;;4162368;28;20270;-76
2022/01/30 07:52:32;;;;;;;7.53;3.25;;;17.20;99.90;;;;;;4161998;28;20267;-75
2022/01/30 07:54:35;;;;;;;10.07;3.42;;;17.20;99.90;;;;;;4162287;28;20221;-75
2022/01/30 07:56:38;;;;;;;9.25;3.67;;;17.20;99.90;;;;;;4160978;28;20286;-76
2022/01/30 07:58:40;;;;;;;8.68;3.05;;;17.20;99.90;;;;;;4163892;28;20220;-75
2022/01/30 08:00:42;;;;;;;8.50;3.38;;;17.20;99.90;;;;;;4159131;28;20220;-75
2022/01/30 08:02:45;;;;;;;9.52;3.58;;;17.20;99.90;;;;;;4162280;28;20275;-75
2022/01/30 08:04:47;;;;;;;9.60;3.33;;;17.20;99.90;;;;;;4162746;28;20216;-75
2022/01/30 08:06:51;;;;;;;7.38;2.75;;;17.20;99.90;;;;;;4163419;28;20704;-75
2022/01/30 08:08:54;;;;;;;8.32;3.10;;;17.20;99.90;;;;;;4161493;28;20209;-75
2022/01/30 08:10:56;;;;;;;7.50;2.97;;;17.20;99.90;;;;;;4162245;28;20629;-75
2022/01/30 08:12:58;;;;;;;10.95;3.63;;;17.20;99.90;;;;;;4162116;28;20224;-75
2022/01/30 08:15:00;;;;;;;11.40;3.30;;;17.10;99.90;;;;;;4154278;28;20220;-75
2022/01/30 08:17:04;;;;;;;9.38;3.22;;;17.20;99.90;;;;;;4159111;28;20232;-75
2022/01/30 08:19:06;;;;;;;7.47;3.22;;;17.20;99.90;;;;;;4162371;28;21081;-75
2022/01/30 08:21:08;;;;;;;10.10;3.45;;;17.20;99.90;;;;;;4162155;28;20216;-75
2022/01/30 08:23:15;;;;;;;10.77;3.67;;;17.20;99.90;;;;;;4161863;28;20669;-75
2022/01/30 08:25:17;;;;;;;7.95;3.10;;;17.20;99.90;;;;;;4161899;28;20221;-76
2022/01/30 08:27:20;;;;;;;7.82;3.25;;;17.20;99.90;;;;;;4161971;28;20259;-75
2022/01/30 08:29:22;;;;;;;7.78;3.47;;;17.20;99.90;;;;;;4161976;28;20209;-75
2022/01/30 08:31:24;;;;;;;7.72;3.20;;;17.20;99.90;;;;;;4161992;28;20255;-75
2022/01/30 08:33:26;;;;;;;9.52;3.47;;;17.20;99.90;;;;;;4160809;28;20212;-75
2022/01/30 08:35:29;;;;;;;9.23;3.75;;;17.20;99.90;;;;;;4161627;28;20274;-75
2022/01/30 08:37:33;;;;;;;9.20;3.88;;;17.20;99.80;;;;;;4161732;28;20641;-75
2022/01/30 08:39:36;;;;;;;9.07;3.40;;;17.20;99.90;;;;;;4161615;28;20216;-75
2022/01/30 08:41:39;;;;;;;11.98;4.20;;;17.20;99.90;;;;;;4161665;28;20212;-75
2022/01/30 08:43:41;;;;;;;10.30;3.70;;;17.20;99.90;;;;;;4161393;28;20216;-75
2022/01/30 08:45:43;;;;;;;8.10;3.33;;;17.20;99.90;;;;;;4157461;28;20240;-75
2022/01/30 08:47:47;;;;;;;7.55;3.40;;;17.20;99.90;;;;;;4160323;28;20208;-75
2022/01/30 08:49:49;;;;;;;7.55;3.72;;;17.20;99.90;;;;;;4161422;28;20241;-75
2022/01/30 08:51:52;;;;;;;8.98;3.72;;;17.20;99.80;;;;;;4159517;28;20265;-75
2022/01/30 08:53:54;;;;;;;9.00;3.67;;;17.30;99.90;;;;;;4161536;28;20208;-75
2022/01/30 08:55:58;;;;;;;8.70;3.58;;;17.20;99.80;;;;;;4162591;28;20285;-76
2022/01/30 08:58:07;;;;;;;8.05;3.38;;;17.20;99.80;;;;;;4161898;28;20244;-75
2022/01/30 09:00:12;;;;;;;7.38;3.10;;;17.20;99.80;;;;;;4163397;28;20711;-75
2022/01/30 09:02:15;;;;;;;9.77;4.05;;;17.20;99.80;;;;;;4162346;28;20267;-75
2022/01/30 09:04:20;;;;;;;7.20;3.22;;;17.20;99.80;;;;;;4161348;28;20267;-75
2022/01/30 09:06:22;;;;;;;11.25;3.58;;;17.20;99.80;;;;;;4161688;28;20244;-75
2022/01/30 09:08:24;;;;;;;8.30;3.17;;;17.20;99.80;;;;;;4161555;28;20224;-75
2022/01/30 09:10:27;;;;;;;9.15;3.70;;;17.20;99.70;;;;;;4162190;28;20623;-75
2022/01/30 09:12:31;;;;;;;9.48;3.70;;;17.20;99.70;;;;;;4165234;28;20216;-75
2022/01/30 09:14:33;;;;;;;8.13;3.45;;;17.20;99.70;;;;;;4164853;28;20661;-75
2022/01/30 09:16:35;;;;;;;9.05;3.78;;;17.20;99.70;;;;;;4165790;28;20236;-75
2022/01/30 09:18:39;;;;;;;8.20;3.28;;;17.20;99.70;;;;;;4165638;28;20262;-75
2022/01/30 09:20:43;;;;;;;7.60;3.55;;;17.20;99.70;;;;;;4164522;28;20208;-74
2022/01/30 09:22:46;;;;;;;8.65;3.95;;;17.20;99.70;;;;;;4165026;28;20220;-75
2022/01/30 09:24:49;;;;;;;7.65;3.45;;;17.20;99.70;;;;;;4162900;28;20262;-75
2022/01/30 09:26:51;;;;;;;7.72;3.20;;;17.10;99.60;;;;;;4164269;28;20213;-74
2022/01/30 09:28:55;;;;;;;9.48;3.67;;;17.20;99.60;;;;;;4166757;28;20290;-75
2022/01/30 09:30:57;;;;;;;10.18;4.10;;;17.20;99.90;;;;;;4164296;28;20676;-75
2022/01/30 09:33:00;;;;;;;11.43;3.92;;;17.20;99.70;;;;;;4163098;28;20657;-75
2022/01/30 09:35:03;;;;;;;8.63;3.28;;;17.20;99.60;;;;;;4164670;28;20212;-74
2022/01/30 09:37:07;;;;;;;7.20;3.53;;;17.20;99.60;;;;;;4164407;28;20649;-74
2022/01/30 09:39:09;;;;;;;8.60;3.70;;;17.20;99.60;;;;;;4166203;28;20228;-74
2022/01/30 09:41:12;;;;;;;10.95;3.60;;;17.20;99.60;;;;;;4164168;28;20282;-74
2022/01/30 09:43:15;;;;;;;9.02;3.58;;;17.10;99.60;;;;;;4165551;28;20239;-75
2022/01/30 09:45:20;;;;;;;8.52;3.40;;;17.20;99.70;;;;;;4163421;28;20286;-76
2022/01/30 09:47:22;;;;;;;9.88;3.55;;;17.20;99.60;;;;;;4164926;28;20216;-76
2022/01/30 09:49:29;;;;;;;8.57;3.42;;;17.20;99.60;;;;;;4164393;28;20220;-76
2022/01/30 09:51:33;;;;;;;9.75;3.88;;;17.10;99.60;;;;;;4164412;28;20220;-75
2022/01/30 09:53:35;;;;;;;8.25;3.33;;;17.10;99.70;;;;;;4164229;28;20217;-76
2022/01/30 09:55:38;;;;;;;7.63;3.22;;;17.10;99.60;;;;;;4164138;28;20263;-76
2022/01/30 09:57:41;;;;;;;9.50;3.35;;;17.10;99.60;;;;;;4163488;28;20244;-75
2022/01/30 09:59:44;;;;;;;10.40;4.05;;;17.10;99.60;;;;;;4164816;28;20262;-75
2022/01/30 10:01:47;;;;;;;8.40;3.30;;;17.10;99.60;;;;;;4165451;28;20271;-75
2022/01/30 10:03:50;;;;;;;8.13;3.67;;;17.10;99.70;;;;;;4165832;28;20225;-75
2022/01/30 10:06:10;;;;;;;9.02;3.65;;;17.10;99.70;;;;;;4164163;28;20806;-75
2022/01/30 10:08:27;;;;;;;10.82;3.42;;;17.10;99.60;;;;;;4162674;28;20213;-76
2022/01/30 10:10:30;;;;;;;17.15;5.28;;;17.10;99.60;;;;;;4163817;28;20267;-76
2022/01/30 10:12:33;;;;;;;11.55;4.28;;;16.60;98.70;;;;;;4165701;28;20208;-76
2022/01/30 10:14:47;;;;;;;14.00;4.10;;;16.50;99.00;;;;;;4164398;28;20232;-76
2022/01/30 10:16:52;;;;;;;9.88;3.38;;;16.70;99.50;;;;;;4161709;28;20267;-76
2022/01/30 10:18:54;;;;;;;11.85;3.67;;;16.70;99.50;;;;;;4164440;28;20266;-76
2022/01/30 10:20:57;;;;;;;11.13;3.95;;;16.80;99.30;;;;;;4164434;28;20624;-76
2022/01/30 10:23:01;;;;;;;10.10;4.35;;;16.80;99.50;;;;;;4164120;28;20220;-76
2022/01/30 10:25:05;;;;;;;11.63;4.13;;;16.80;99.80;;;;;;4155646;28;20263;-76
2022/01/30 10:27:20;;;;;;;8.65;3.47;;;16.90;99.70;;;;;;4163795;28;20216;-76
2022/01/30 10:29:25;;;;;;;9.32;3.25;;;16.90;99.50;;;;;;4163902;28;20258;-76
2022/01/30 10:31:27;;;;;;;8.18;3.83;;;16.90;99.40;;;;;;4163554;28;20213;-76
2022/01/30 10:33:46;;;;;;;10.07;3.78;;;16.90;99.40;;;;;;4163698;28;20220;-75
2022/01/30 10:35:54;;;;;;;11.52;4.25;;;17.00;99.60;;;;;;4161970;28;20216;-74
2022/01/30 10:37:57;;;;;;;10.52;3.97;;;17.00;99.60;;;;;;4163344;28;20231;-75
2022/01/30 10:40:06;;;;;;;9.85;3.83;;;17.00;99.40;;;;;;4163973;28;20221;-75
2022/01/30 10:42:39;;;;;;;9.32;3.78;;;17.00;99.50;;;;;;4163743;28;20680;-75
2022/01/30 10:44:47;;;;;;;8.23;3.92;;;17.00;99.40;;;;;;4162675;28;20248;-74
2022/01/30 10:46:51;;;;;;;9.60;3.50;;;17.00;99.50;;;;;;4165756;28;20649;-75
2022/01/30 10:48:58;;;;;;;10.93;4.05;;;17.10;99.40;;;;;;4163591;28;20266;-75
2022/01/30 10:51:11;;;;;;;12.70;4.07;;;17.00;99.40;;;;;;4163307;28;20216;-75
2022/01/30 10:53:22;;;;;;;10.85;3.97;;;17.00;99.40;;;;;;4163549;28;20270;-75
2022/01/30 10:55:38;;;;;;;9.52;3.75;;;17.00;99.40;;;;;;4162586;28;20267;-75
2022/01/30 10:57:42;;;;;;;8.48;3.55;;;17.10;99.50;;;;;;4164671;28;20758;-75
2022/01/30 10:59:52;;;;;;;13.07;3.95;;;17.10;99.40;;;;;;4164775;28;20263;-74
2022/01/30 11:01:54;;;;;;;11.70;3.72;;;17.10;99.40;;;;;;4163603;28;20640;-75
2022/01/30 11:04:00;;;;;;;9.60;3.95;;;17.00;99.70;;;;;;4163276;28;21069;-75
2022/01/30 11:06:03;;;;;;;9.65;3.45;;;17.00;99.40;;;;;;4165046;28;20963;-74
2022/01/30 11:08:21;;;;;;;10.48;3.30;;;17.00;99.40;;;;;;4163346;28;20224;-75
2022/01/30 11:10:26;;;;;;;11.43;4.03;;;17.00;99.50;;;;;;4162581;28;21113;-74
2022/01/30 11:12:34;;;;;;;8.98;3.80;;;17.00;99.40;;;;;;4164564;28;20539;-75
2022/01/30 11:14:40;;;;;;;10.90;3.65;;;17.10;99.50;;;;;;4163249;28;20212;-75